Time;durP1;ratioP1;P1;durP2;ratioP2;P2;SDS_P1;SDS_P2;PMS_P1;PMS_P2;Temp;Humidity;BMP_temperature;BMP_pressure;BME280_temperature;BME280_humidity;BME280_pressure;Samples;Min_cycle;Max_cycle;Signal;HPM_P1;HPM_P2
2021/06/29 00:04:51;;;;;;;;;;;17.50;99.90;;;16.66;100.00;95622.22;10460477;28;2033;-80
2021/06/29 00:09:54;;;;;;;;;;;17.50;99.90;;;16.73;100.00;95617.19;10464097;28;1848;-80
2021/06/29 00:14:57;;;;;;;;;;;17.60;99.90;;;16.75;100.00;95620.38;10448750;28;1998;-80
2021/06/29 00:19:59;;;;;;;;;;;17.60;99.90;;;16.67;100.00;95620.31;10470865;28;2010;-82
2021/06/29 00:25:02;;;;;;;;;;;17.50;99.90;;;16.67;100.00;95629.25;10500879;28;1659;-81
2021/06/29 00:30:05;;;;;;;;;;;17.50;99.90;;;16.72;100.00;95631.84;10498406;28;1746;-80
2021/06/29 00:35:08;;;;;;;;;;;17.50;99.90;;;16.72;100.00;95634.56;10464723;28;2092;-82
2021/06/29 00:40:10;;;;;;;;;;;17.60;99.90;;;16.83;100.00;95634.25;10472288;28;2108;-80
2021/06/29 00:45:13;;;;;;;;;;;17.70;99.90;;;16.77;100.00;95644.47;10472623;28;1815;-80
2021/06/29 00:50:16;;;;;;;;;;;17.70;99.90;;;16.84;100.00;95652.16;10468273;28;2182;-80
2021/06/29 00:55:19;;;;;;;;;;;17.70;99.90;;;16.91;100.00;95652.47;10498236;28;1871;-78
2021/06/29 01:00:21;;;;;;;;;;;17.70;99.90;;;16.90;100.00;95654.41;10496540;28;2266;-80
2021/06/29 01:05:24;;;;;;;;;;;17.70;99.90;;;16.88;100.00;95647.69;10489254;28;2012;-80
2021/06/29 01:10:27;;;;;;;;;;;17.80;99.90;;;16.75;100.00;95631.22;10483745;28;2092;-80
2021/06/29 01:15:29;;;;;;;;;;;17.70;99.90;;;16.69;100.00;95632.44;10489935;28;1782;-79
2021/06/29 01:20:34;;;;;;;;;;;17.60;99.90;;;16.58;100.00;95630.34;10467481;28;2391;-80
2021/06/29 01:25:39;;;;;;;;;;;17.60;99.90;;;16.69;100.00;95654.16;10475084;28;2060;-80
2021/06/29 01:31:03;;;;;;;;;;;17.50;99.90;;;16.72;100.00;95648.13;10476872;28;2271;-81
2021/06/29 01:36:06;;;;;;;;;;;17.50;99.90;;;16.73;100.00;95655.19;10463634;28;2505;-80
2021/06/29 01:41:09;;;;;;;;;;;17.60;99.90;;;16.78;100.00;95666.97;10470183;28;2024;-81
2021/06/29 01:46:12;;;;;;;;;;;17.60;99.90;;;16.71;100.00;95656.59;10495360;28;2160;-79
2021/06/29 01:51:15;;;;;;;;;;;17.60;99.90;;;16.86;100.00;95655.34;10458615;28;2041;-78
2021/06/29 01:56:20;;;;;;;;;;;17.60;99.90;;;16.81;100.00;95650.09;10489378;28;2171;-80
2021/06/29 02:01:23;;;;;;;;;;;17.70;99.90;;;16.86;100.00;95652.63;10463001;28;2120;-80
2021/06/29 02:06:26;;;;;;;;;;;17.70;99.90;;;16.85;100.00;95646.41;10462967;28;2168;-81
2021/06/29 02:11:29;;;;;;;;;;;17.70;99.90;;;16.88;100.00;95650.41;10460898;28;2073;-81
2021/06/29 02:16:31;;;;;;;;;;;17.70;99.90;;;16.94;100.00;95652.66;10475102;28;2079;-79
2021/06/29 02:21:34;;;;;;;;;;;17.80;99.90;;;17.00;100.00;95647.88;10486383;28;2143;-81
2021/06/29 02:26:37;;;;;;;;;;;17.80;99.90;;;17.01;100.00;95638.63;10481200;28;2049;-80
2021/06/29 02:31:40;;;;;;;;;;;17.80;99.90;;;16.98;100.00;95645.47;10443514;28;2116;-79
2021/06/29 02:36:43;;;;;;;;;;;17.90;99.90;;;16.99;100.00;95640.84;10449329;28;2151;-79
2021/06/29 02:41:46;;;;;;;;;;;17.80;99.90;;;17.17;100.00;95650.59;10466012;28;2084;-78
2021/06/29 02:46:48;;;;;;;;;;;18.00;99.90;;;17.19;100.00;95644.88;10462674;28;1900;-79
2021/06/29 02:51:51;;;;;;;;;;;18.00;99.90;;;17.06;100.00;95630.31;10461363;28;2196;-78
2021/06/29 02:56:54;;;;;;;;;;;18.00;99.90;;;17.08;100.00;95638.13;10486899;28;1937;-79
2021/06/29 03:01:57;;;;;;;;;;;17.90;99.90;;;17.05;100.00;95642.31;10488127;28;2080;-78
2021/06/29 03:07:00;;;;;;;;;;;17.90;99.90;;;17.08;100.00;95638.94;10486888;28;1847;-82
2021/06/29 03:12:03;;;;;;;;;;;17.90;99.90;;;17.14;100.00;95624.09;10488165;28;2037;-80
2021/06/29 03:17:05;;;;;;;;;;;18.00;99.90;;;17.13;99.87;95619.78;10473296;28;2044;-79
2021/06/29 03:22:08;;;;;;;;;;;18.00;99.90;;;17.05;100.00;95617.03;10470544;28;1974;-80
2021/06/29 03:27:11;;;;;;;;;;;18.00;99.90;;;17.08;99.74;95611.78;10493624;28;2077;-81
2021/06/29 03:32:14;;;;;;;;;;;18.00;99.90;;;17.13;100.00;95613.56;10492138;28;2115;-79
2021/06/29 03:37:16;;;;;;;;;;;17.90;99.90;;;17.17;100.00;95611.78;10488871;28;2138;-81
2021/06/29 03:42:19;;;;;;;;;;;18.00;99.90;;;17.17;99.40;95623.44;10491550;28;1953;-80
2021/06/29 03:47:22;;;;;;;;;;;18.10;99.90;;;17.15;98.56;95619.44;10494673;28;2105;-79
2021/06/29 03:52:24;;;;;;;;;;;18.00;99.90;;;17.12;98.72;95601.88;10467478;28;2108;-79
2021/06/29 03:57:27;;;;;;;;;;;18.00;99.90;;;17.21;98.75;95608.09;10456311;28;2102;-80
2021/06/29 04:02:30;;;;;;;;;;;18.10;99.90;;;17.37;97.54;95618.47;10430964;28;2265;-81
2021/06/29 04:07:33;;;;;;;;;;;18.10;99.90;;;17.40;97.09;95612.41;10439538;28;2088;-81
2021/06/29 04:12:35;;;;;;;;;;;18.20;99.90;;;17.37;95.87;95618.47;10444493;28;2234;-81
2021/06/29 04:17:58;;;;;;;;;;;18.20;99.90;;;17.25;95.83;95614.50;10469237;28;1983;-81
2021/06/29 04:23:21;;;;;;;;;;;18.20;99.90;;;17.16;96.75;95612.91;10463293;28;2333;-79
2021/06/29 04:28:43;;;;;;;;;;;18.10;99.90;;;17.07;96.42;95612.91;10452752;28;2099;-81
2021/06/29 04:33:46;;;;;;;;;;;18.60;99.90;;;17.22;96.64;95600.75;10457552;28;2040;-82
2021/06/29 04:38:49;;;;;;;;;;;18.00;99.90;;;17.51;94.13;95605.53;10438558;28;2103;-81
2021/06/29 04:43:51;;;;;;;;;;;18.20;99.90;;;17.62;93.61;95604.06;10449035;28;2087;-81
2021/06/29 04:48:54;;;;;;;;;;;18.40;99.90;;;18.15;89.92;95611.03;10460708;28;2095;-81
2021/06/29 04:53:57;;;;;;;;;;;18.70;99.90;;;18.43;88.26;95637.78;10464825;28;2134;-81
2021/06/29 04:59:01;;;;;;;;;;;19.00;99.90;;;18.16;88.08;95634.38;10464953;28;2181;-80
2021/06/29 05:04:04;;;;;;;;;;;19.10;99.90;;;18.04;89.41;95647.84;10468000;28;2126;-80
2021/06/29 05:09:06;;;;;;;;;;;18.90;99.90;;;18.08;88.30;95640.66;10459898;28;2115;-82
2021/06/29 05:14:09;;;;;;;;;;;18.90;99.90;;;18.19;86.11;95639.16;10463566;28;2373;-80
2021/06/29 05:19:12;;;;;;;;;;;18.90;99.90;;;18.33;86.40;95633.53;10477231;28;1988;-79
2021/06/29 05:24:15;;;;;;;;;;;19.00;99.90;;;18.16;86.86;95655.34;10471291;28;2068;-81
2021/06/29 05:29:17;;;;;;;;;;;19.00;99.90;;;18.24;87.68;95652.59;10459879;28;2128;-82
2021/06/29 05:34:20;;;;;;;;;;;19.00;99.90;;;18.34;86.64;95657.69;10474289;28;1683;-81
2021/06/29 05:39:23;;;;;;;;;;;19.10;99.90;;;18.34;86.58;95657.69;10465561;28;2162;-81
2021/06/29 05:44:26;;;;;;;;;;;19.20;99.90;;;18.24;86.74;95668.91;10474572;28;2101;-81
2021/06/29 05:49:28;;;;;;;;;;;19.10;99.90;;;18.12;88.15;95673.44;10462989;28;2084;-80
2021/06/29 05:54:31;;;;;;;;;;;19.00;99.90;;;18.05;91.00;95673.91;10488258;28;2046;-79
2021/06/29 05:59:34;;;;;;;;;;;19.00;99.90;;;17.85;93.80;95677.31;10469553;28;1961;-81
2021/06/29 06:04:37;;;;;;;;;;;18.90;99.90;;;17.45;97.60;95658.47;10493068;28;2036;-80
2021/06/29 06:09:39;;;;;;;;;;;18.60;99.90;;;17.16;100.00;95678.88;10492408;28;1989;-82
2021/06/29 06:14:42;;;;;;;;;;;18.30;99.90;;;17.05;100.00;95685.75;10468889;28;2151;-78
2021/06/29 06:19:45;;;;;;;;;;;18.00;99.90;;;17.06;100.00;95656.69;10474804;28;2069;-79
2021/06/29 06:24:52;;;;;;;;;;;18.00;99.90;;;17.79;95.35;95641.34;10456056;28;2045;-81
2021/06/29 06:29:55;;;;;;;;;;;18.30;99.90;;;18.10;91.85;95681.91;10478531;28;1675;-81
2021/06/29 06:34:58;;;;;;;;;;;18.70;99.90;;;18.22;92.54;95671.16;10469528;28;1881;-80
2021/06/29 06:40:00;;;;;;;;;;;18.90;99.90;;;17.89;94.10;95651.09;10490402;28;1954;-78
2021/06/29 06:45:03;;;;;;;;;;;18.80;99.90;;;18.28;91.19;95623.63;10475207;28;2092;-79
2021/06/29 06:50:06;;;;;;;;;;;18.90;99.90;;;18.54;90.52;95630.88;10461799;28;2128;-81
2021/06/29 06:55:12;;;;;;;;;;;19.10;99.90;;;18.72;88.55;95623.44;10481536;28;1986;-80
2021/06/29 07:00:15;;;;;;;;;;;19.40;99.90;;;18.88;86.90;95624.44;10468385;28;2400;-80
2021/06/29 07:05:17;;;;;;;;;;;19.50;99.90;;;18.99;86.26;95601.16;10442981;28;2045;-80
2021/06/29 07:10:20;;;;;;;;;;;19.70;99.90;;;19.28;84.25;95594.06;10466224;28;1720;-80
2021/06/29 07:15:23;;;;;;;;;;;19.80;99.90;;;19.96;80.55;95595.34;10465758;28;2062;-79
2021/06/29 07:20:26;;;;;;;;;;;20.20;99.90;;;20.50;77.57;95581.56;10451766;28;2112;-80
2021/06/29 07:25:29;;;;;;;;;;;20.80;99.90;;;21.57;71.23;95556.66;10460660;28;2061;-79
2021/06/29 07:30:31;;;;;;;;;;;21.60;99.90;;;21.69;68.72;95542.09;10468407;28;2046;-80
2021/06/29 07:35:34;;;;;;;;;;;22.20;99.90;;;21.95;66.04;95526.00;10455840;28;1920;-81
2021/06/29 07:40:37;;;;;;;;;;;22.50;99.90;;;21.94;66.28;95521.66;10449666;28;2064;-80
2021/06/29 07:45:40;;;;;;;;;;;22.70;99.90;;;22.06;64.06;95496.13;10463691;28;2032;-80
2021/06/29 07:50:43;;;;;;;;;;;22.70;99.90;;;22.47;64.41;95488.53;10456769;28;1593;-80
2021/06/29 07:55:46;;;;;;;;;;;22.90;99.90;;;22.40;61.95;95478.22;10485717;28;1931;-81
2021/06/29 08:00:49;;;;;;;;;;;23.00;99.90;;;22.47;62.09;95461.94;10463786;28;2035;-80
2021/06/29 08:05:51;;;;;;;;;;;23.20;99.90;;;22.71;60.49;95471.06;10435086;28;2060;-80
2021/06/29 08:10:54;;;;;;;;;;;23.30;99.90;;;22.62;61.54;95479.47;10444480;28;2109;-80
2021/06/29 08:15:57;;;;;;;;;;;23.40;99.90;;;23.12;59.35;95467.66;10469535;28;1999;-81
2021/06/29 08:21:00;;;;;;;;;;;23.60;99.90;;;23.09;58.06;95464.81;10456620;28;2204;-81
2021/06/29 08:26:03;;;;;;;;;;;23.80;99.90;;;23.10;57.99;95439.81;10475105;28;2094;-79
2021/06/29 08:31:06;;;;;;;;;;;23.80;99.90;;;23.41;57.79;95444.31;10492541;28;2243;-80
2021/06/29 08:36:09;;;;;;;;;;;24.00;99.90;;;23.48;57.92;95435.44;10496008;28;2072;-81
2021/06/29 08:41:15;;;;;;;;;;;24.10;99.90;;;23.43;56.86;95416.53;10477889;28;2103;-81
2021/06/29 08:46:19;;;;;;;;;;;24.30;99.90;;;23.67;54.71;95407.97;10455664;28;1818;-80
2021/06/29 08:51:23;;;;;;;;;;;24.40;99.90;;;23.69;55.42;95408.38;10456202;28;2128;-79
2021/06/29 08:56:28;;;;;;;;;;;24.40;99.90;;;23.82;55.00;95408.19;10446809;28;1497;-77
2021/06/29 09:01:31;;;;;;;;;;;24.50;99.90;;;24.02;53.88;95384.97;10448794;28;1947;-77
2021/06/29 09:06:35;;;;;;;;;;;24.70;99.90;;;24.20;53.89;95386.03;10462488;28;1173;-81
2021/06/29 09:11:38;;;;;;;;;;;24.80;99.90;;;23.89;50.65;95391.84;10476314;28;1952;-83
2021/06/29 09:16:40;;;;;;;;;;;24.80;99.90;;;24.17;50.98;95375.78;10464554;28;2206;-81
2021/06/29 09:25:08;;;;;;;;;;;24.80;99.90;;;23.58;52.67;95370.91;10648700;27;2323;-81
2021/06/29 09:30:11;;;;;;;;;;;24.60;99.90;;;24.44;48.70;95351.09;10621670;27;2125;-79
2021/06/29 09:35:13;;;;;;;;;;;25.00;99.90;;;23.73;48.65;95343.41;10630937;27;1955;-83
2021/06/29 09:40:16;;;;;;;;;;;24.90;99.90;;;24.23;48.57;95335.84;10619266;27;2018;-81
2021/06/29 09:45:19;;;;;;;;;;;25.00;99.90;;;24.32;48.98;95321.06;10617752;27;2169;-81
2021/06/29 09:50:22;;;;;;;;;;;25.10;99.90;;;24.28;46.21;95310.03;10607763;28;2117;-82
2021/06/29 09:55:24;;;;;;;;;;;25.20;99.90;;;24.14;45.24;95307.91;10606103;27;2388;-81
2021/06/29 10:00:27;;;;;;;;;;;25.00;99.90;;;24.29;47.99;95308.88;10604884;28;2084;-79
2021/06/29 10:05:31;;;;;;;;;;;25.00;99.90;;;24.45;46.89;95300.47;10602538;28;2192;-81
2021/06/29 10:10:34;;;;;;;;;;;25.20;99.90;;;24.31;46.55;95292.03;10614591;28;1908;-80
2021/06/29 10:15:37;;;;;;;;;;;25.30;99.90;;;24.62;45.95;95275.16;10619949;27;1941;-82
2021/06/29 10:20:52;;;;;;;;;;;25.40;99.90;;;24.30;45.39;95265.72;10605096;27;2274;-82
2021/06/29 10:25:55;;;;;;;;;;;25.40;99.90;;;24.61;47.08;95235.09;10612776;27;2293;-81
2021/06/29 10:30:57;;;;;;;;;;;25.40;99.90;;;24.60;45.85;95243.72;10603164;27;2071;-80
2021/06/29 10:36:00;;;;;;;;;;;25.50;99.90;;;24.61;45.08;95237.84;10592693;27;2005;-80
2021/06/29 10:41:03;;;;;;;;;;;25.50;99.90;;;25.88;43.53;95218.06;10570137;28;1981;-80
2021/06/29 10:46:05;;;;;;;;;;;26.30;99.90;;;25.63;43.19;95210.81;10580430;27;1919;-81
2021/06/29 10:51:11;;;;;;;;;;;27.20;99.90;;;25.68;43.61;95204.97;10571835;28;2091;-80
2021/06/29 10:56:16;;;;;;;;;;;27.30;99.90;;;25.90;43.59;95192.94;10565649;28;1643;-81
2021/06/29 11:01:19;;;;;;;;;;;27.90;99.90;;;25.12;45.57;95182.16;10582926;27;2021;-80
2021/06/29 11:06:21;;;;;;;;;;;27.70;99.90;;;25.38;45.04;95177.63;10575818;27;2024;-82
2021/06/29 11:11:28;;;;;;;;;;;27.40;99.90;;;25.21;46.57;95163.41;10585367;27;1910;-82
2021/06/29 11:16:30;;;;;;;;;;;27.40;99.90;;;25.46;46.45;95165.53;10589902;27;1956;-78
2021/06/29 11:21:34;;;;;;;;;;;27.30;99.90;;;25.29;45.29;95167.78;10574580;27;2214;-82
2021/06/29 11:26:37;;;;;;;;;;;27.40;99.90;;;25.06;46.68;95156.19;10568438;28;1859;-82
2021/06/29 11:31:41;;;;;;;;;;;27.20;99.90;;;24.61;47.32;95147.16;10573925;27;2055;-82
2021/06/29 11:36:44;;;;;;;;;;;26.50;99.90;;;24.90;46.84;95131.72;10569313;27;2072;-81
2021/06/29 11:41:47;;;;;;;;;;;26.40;99.90;;;24.57;47.91;95129.88;10570976;27;2794;-80
2021/06/29 11:46:54;;;;;;;;;;;25.80;99.90;;;24.39;48.20;95099.47;10572893;27;2111;-80
2021/06/29 11:51:58;;;;;;;;;;;25.70;99.90;;;24.73;47.13;95091.91;10569588;27;2284;-80
2021/06/29 11:57:00;;;;;;;;;;;25.70;99.90;;;24.93;46.70;95088.91;10578158;28;1782;-79
2021/06/29 12:02:03;;;;;;;;;;;25.90;99.90;;;24.79;49.40;95070.38;10574898;27;1909;-79
2021/06/29 12:07:06;;;;;;;;;;;25.90;99.90;;;25.02;48.05;95065.41;10591096;28;2115;-82
2021/06/29 12:12:11;;;;;;;;;;;26.00;99.90;;;25.03;48.53;95058.75;10579976;28;1907;-81
2021/06/29 12:17:25;;;;;;;;;;;26.10;99.90;;;24.44;49.09;95051.66;10590363;27;1723;-82
2021/06/29 12:22:28;;;;;;;;;;;25.80;99.90;;;25.02;47.99;95034.38;10583814;28;2053;-81
2021/06/29 12:27:43;;;;;;;;;;;25.80;99.90;;;24.85;48.59;95035.84;10582616;27;2091;-79
2021/06/29 12:32:46;;;;;;;;;;;26.10;99.90;;;25.04;49.26;95013.59;10594976;27;1722;-82
2021/06/29 12:37:49;;;;;;;;;;;26.00;99.90;;;25.49;47.70;94996.91;10593160;27;1867;-81
2021/06/29 12:42:52;;;;;;;;;;;26.30;99.90;;;25.34;47.65;94985.84;10604477;27;1882;-81
2021/06/29 12:47:55;;;;;;;;;;;26.40;99.90;;;25.12;48.35;94977.88;10609187;28;1667;-80
2021/06/29 12:53:01;;;;;;;;;;;26.30;99.90;;;25.04;48.93;94974.28;10575039;27;1993;-82
2021/06/29 12:58:04;;;;;;;;;;;26.10;99.90;;;25.14;49.59;94942.56;10583850;27;2050;-80
2021/06/29 13:03:06;;;;;;;;;;;26.10;99.90;;;25.31;49.14;94939.84;10579523;28;2296;-79
2021/06/29 13:08:09;;;;;;;;;;;26.30;99.90;;;25.09;49.26;94938.22;10575378;27;2144;-80
2021/06/29 13:13:13;;;;;;;;;;;26.20;99.90;;;25.12;49.60;94931.16;10573827;27;1994;-80
2021/06/29 13:18:16;;;;;;;;;;;26.10;99.90;;;25.15;48.31;94922.13;10578234;28;2009;-81
2021/06/29 13:23:18;;;;;;;;;;;26.20;99.90;;;25.65;47.48;94912.03;10581609;28;1988;-81
2021/06/29 13:28:21;;;;;;;;;;;26.50;99.90;;;25.58;48.85;94898.28;10569055;28;1973;-81
2021/06/29 13:33:24;;;;;;;;;;;26.50;99.90;;;25.05;50.08;94898.91;10580052;28;2029;-83
2021/06/29 13:38:27;;;;;;;;;;;26.30;99.90;;;25.09;51.25;94901.69;10579903;27;1776;-81
2021/06/29 13:43:30;;;;;;;;;;;26.00;99.90;;;24.60;53.25;94925.78;10587730;28;2079;-83
2021/06/29 13:48:32;;;;;;;;;;;25.70;99.90;;;24.90;52.50;94903.53;10582860;28;2056;-81
2021/06/29 13:53:37;;;;;;;;;;;25.70;99.90;;;24.70;54.28;94896.78;10564129;28;2151;-80
2021/06/29 13:58:41;;;;;;;;;;;25.70;99.90;;;24.74;54.12;94898.34;10572504;28;2180;-81
2021/06/29 14:03:44;;;;;;;;;;;25.60;99.90;;;24.35;54.25;94905.59;10574855;28;2310;-83
2021/06/29 14:08:50;;;;;;;;;;;25.50;99.90;;;24.21;55.21;94893.31;10581983;28;2088;-82
2021/06/29 14:13:58;;;;;;;;;;;25.10;99.90;;;23.91;55.29;94884.47;10595123;28;1951;-80
2021/06/29 14:19:01;;;;;;;;;;;25.00;99.90;;;23.76;55.55;94866.34;10585693;27;1576;-80
2021/06/29 14:24:04;;;;;;;;;;;24.80;99.90;;;23.48;56.13;94856.69;10583110;28;2099;-77
2021/06/29 14:29:07;;;;;;;;;;;24.60;99.90;;;23.38;56.53;94851.88;10572656;28;2032;-80
2021/06/29 14:34:10;;;;;;;;;;;24.40;99.90;;;23.26;56.97;94874.06;10570811;27;1898;-82
2021/06/29 14:39:13;;;;;;;;;;;24.20;99.90;;;23.09;56.91;94878.19;10585858;27;1385;-80
2021/06/29 14:44:15;;;;;;;;;;;24.10;99.90;;;22.96;57.84;94890.59;10580822;28;1977;-83
2021/06/29 14:49:18;;;;;;;;;;;24.00;99.90;;;22.95;58.23;94933.66;10583927;27;1516;-81
2021/06/29 14:54:21;;;;;;;;;;;23.90;99.90;;;22.99;57.86;95022.19;10577808;28;1876;-81
2021/06/29 14:59:25;;;;;;;;;;;23.90;99.90;;;22.10;63.12;95092.75;10596854;27;2137;-83
2021/06/29 15:04:43;;;;;;;;;;;23.60;99.90;;;17.85;95.04;95180.56;10593183;27;2365;-84
2021/06/29 15:09:49;;;;;;;;;;;18.00;99.90;;;13.86;100.00;95176.72;10586743;28;2796;-81
2021/06/29 15:14:57;;;;;;;;;;;16.30;99.90;;;13.99;100.00;95203.66;10507881;27;447285;-81
2021/06/29 15:26:07;;;;;;;;;;;14.70;99.90;;;13.30;100.00;95284.13;10507636;28;1910;-80
2021/06/29 15:31:24;;;;;;;;;;;14.30;99.90;;;12.99;100.00;95263.16;10511936;28;1724;-80
2021/06/29 15:36:33;;;;;;;;;;;14.10;99.90;;;13.03;100.00;95292.22;10514847;28;1942;-81
2021/06/29 15:41:38;;;;;;;;;;;14.00;99.90;;;13.28;100.00;95380.00;10538947;28;1981;-80
2021/06/29 15:46:50;;;;;;;;;;;14.10;99.90;;;13.46;100.00;95363.69;10524293;28;2372;-80
2021/06/29 15:52:05;;;;;;;;;;;14.20;99.90;;;13.49;100.00;95356.91;10502878;28;2000;-80
2021/06/29 15:57:12;;;;;;;;;;;14.30;99.90;;;13.47;100.00;95369.88;10530915;28;1823;-80
2021/06/29 16:02:15;;;;;;;;;;;14.40;99.90;;;13.42;100.00;95372.69;10527545;28;1991;-80
2021/06/29 16:07:20;;;;;;;;;;;14.30;99.90;;;13.57;100.00;95391.28;10531305;28;1699;-79
2021/06/29 16:12:30;;;;;;;;;;;14.40;99.90;;;13.43;100.00;95383.22;10508841;28;1935;-80
2021/06/29 16:17:34;;;;;;;;;;;14.40;99.90;;;13.36;100.00;95384.69;10504761;28;2203;-81
2021/06/29 16:22:42;;;;;;;;;;;14.30;99.90;;;13.47;100.00;95392.28;10520414;28;2482;-80
2021/06/29 16:27:55;;;;;;;;;;;14.40;99.90;;;13.52;100.00;95389.50;10523387;28;1911;-78
2021/06/29 16:32:59;;;;;;;;;;;14.40;99.90;;;13.63;100.00;95405.50;10554575;28;1697;-82
2021/06/29 16:38:08;;;;;;;;;;;14.50;99.90;;;13.68;100.00;95441.31;10503956;28;2063;-81
2021/06/29 16:43:15;;;;;;;;;;;14.50;99.90;;;13.82;100.00;95470.22;10519939;28;1937;-78
2021/06/29 16:48:26;;;;;;;;;;;14.70;99.90;;;13.85;100.00;95451.47;10520499;28;1672;-79
2021/06/29 16:53:51;;;;;;;;;;;14.70;99.90;;;13.99;100.00;95462.28;10508645;28;1793;-80
2021/06/29 16:59:27;;;;;;;;;;;14.90;99.90;;;14.09;100.00;95477.47;10512372;28;2633;-79
2021/06/29 17:04:59;;;;;;;;;;;14.90;99.90;;;14.10;100.00;95492.59;10513862;28;1914;-78
2021/06/29 17:10:22;;;;;;;;;;;14.90;99.90;;;14.23;100.00;95505.28;10498663;28;1727;-75
2021/06/29 17:15:42;;;;;;;;;;;15.00;99.90;;;14.48;100.00;95515.59;10523562;28;1724;-80
2021/06/29 17:31:52;;;;;;;;;;;15.50;99.90;;;14.66;100.00;95481.38;10503526;28;1625;-78
2021/06/29 17:37:13;;;;;;;;;;;15.60;99.90;;;14.51;100.00;95458.19;10526204;28;2515;-79
2021/06/29 17:42:49;;;;;;;;;;;15.50;99.90;;;14.27;100.00;95436.81;10500122;28;1921;-80
2021/06/29 17:48:03;;;;;;;;;;;15.30;99.90;;;14.26;100.00;95450.63;10534981;28;1915;-79
2021/06/29 17:53:29;;;;;;;;;;;15.20;99.90;;;14.22;100.00;95466.63;10533435;28;1911;-79
2021/06/29 18:04:46;;;;;;;;;;;15.20;99.90;;;14.39;100.00;95466.00;10528185;28;1906;-80
2021/06/29 18:29:23;;;;;;;;;;;15.60;99.90;;;14.77;100.00;95452.97;10253894;28;1834;-80
2021/06/29 18:40:49;;;;;;;;;;;15.70;99.90;;;14.73;100.00;95424.13;10494095;28;2050;-81
2021/06/29 18:45:52;;;;;;;;;;;15.70;99.90;;;14.68;100.00;95426.94;10497794;28;2067;-80
2021/06/29 18:50:56;;;;;;;;;;;15.70;99.90;;;14.63;100.00;95416.25;10519885;28;2056;-82
2021/06/29 18:56:01;;;;;;;;;;;15.70;99.90;;;14.56;100.00;95412.06;10518140;28;1875;-81
2021/06/29 19:12:55;;;;;;;;;;;15.50;99.90;;;14.36;100.00;95409.81;10387998;28;2009;-82
2021/06/29 19:18:21;;;;;;;;;;;15.50;99.90;;;14.26;100.00;95401.97;10421330;28;2138;-80
2021/06/29 19:23:27;;;;;;;;;;;15.40;99.90;;;14.27;100.00;95406.25;10426485;28;2136;-84
2021/06/29 19:28:33;;;;;;;;;;;15.30;99.90;;;14.18;100.00;95392.66;10441859;28;1964;-84
2021/06/29 19:33:46;;;;;;;;;;;15.30;99.90;;;14.10;100.00;95376.38;10429277;28;2089;-81
2021/06/29 19:39:09;;;;;;;;;;;15.20;99.90;;;14.02;100.00;95386.81;10436959;28;2113;-82
2021/06/29 19:50:30;;;;;;;;;;;15.10;99.90;;;14.00;100.00;95380.91;10378216;28;1939;-80
2021/06/29 19:55:47;;;;;;;;;;;15.10;99.90;;;14.13;100.00;95381.19;10414876;28;2060;-79
2021/06/29 20:01:03;;;;;;;;;;;15.20;99.90;;;14.24;100.00;95396.03;10442321;28;1880;-80
2021/06/29 20:06:06;;;;;;;;;;;15.20;99.90;;;14.26;100.00;95396.56;10418333;28;2005;-82
2021/06/29 20:11:18;;;;;;;;;;;15.30;99.90;;;14.23;100.00;95405.25;10450476;28;2185;-81
2021/06/29 20:16:26;;;;;;;;;;;15.30;99.90;;;14.21;100.00;95410.19;10410647;28;2055;-80
2021/06/29 20:27:18;;;;;;;;;;;15.30;99.90;;;14.50;100.00;95418.72;10412146;28;1965;-80
2021/06/29 20:32:49;;;;;;;;;;;15.40;99.90;;;14.57;100.00;95419.09;10436637;28;2034;-80
2021/06/29 20:43:28;;;;;;;;;;;15.60;99.90;;;14.69;100.00;95445.56;10268193;28;2106;-80
2021/06/29 20:54:17;;;;;;;;;;;15.70;99.90;;;14.74;100.00;95439.25;10266778;28;2112;-82
2021/06/29 20:59:26;;;;;;;;;;;15.70;99.90;;;14.70;100.00;95443.69;10247873;28;2177;-80
2021/06/29 21:04:30;;;;;;;;;;;15.70;99.90;;;14.72;100.00;95452.28;10268944;28;1978;-78
2021/06/29 21:09:35;;;;;;;;;;;15.70;99.90;;;14.72;100.00;95463.13;10247333;29;2264;-82
2021/06/29 21:14:42;;;;;;;;;;;15.70;99.90;;;14.70;100.00;95473.47;10382559;28;1750;-78
2021/06/29 21:19:52;;;;;;;;;;;15.70;99.90;;;14.67;100.00;95476.75;10433001;28;1901;-81
2021/06/29 21:24:58;;;;;;;;;;;15.70;99.90;;;14.66;100.00;95484.06;10416143;28;2169;-81
2021/06/29 21:30:01;;;;;;;;;;;15.70;99.90;;;14.67;100.00;95484.88;10408866;28;2199;-82
2021/06/29 21:35:10;;;;;;;;;;;15.70;99.90;;;14.70;100.00;95489.69;10422049;28;2066;-81
2021/06/29 21:40:20;;;;;;;;;;;15.70;99.90;;;14.77;100.00;95481.94;10414288;28;2101;-82
2021/06/29 21:45:31;;;;;;;;;;;15.70;99.90;;;14.75;100.00;95471.41;10431666;28;2138;-80
2021/06/29 21:51:12;;;;;;;;;;;15.70;99.90;;;14.79;100.00;95474.31;10420512;28;2259;-80
2021/06/29 21:56:26;;;;;;;;;;;15.70;99.90;;;14.72;100.00;95469.31;10430358;28;2168;-81
2021/06/29 22:01:41;;;;;;;;;;;15.70;99.90;;;14.77;100.00;95460.31;10428364;28;2094;-81
2021/06/29 22:07:06;;;;;;;;;;;15.80;99.90;;;14.73;100.00;95467.41;10423151;28;2289;-80
2021/06/29 22:12:19;;;;;;;;;;;15.80;99.90;;;14.70;100.00;95454.53;10398645;28;2183;-81
2021/06/29 22:17:24;;;;;;;;;;;15.80;99.90;;;14.63;100.00;95454.91;10409099;28;2143;-80
2021/06/29 22:22:32;;;;;;;;;;;15.70;99.90;;;14.62;100.00;95449.81;10404847;28;2187;-80
2021/06/29 22:27:47;;;;;;;;;;;15.70;99.90;;;14.68;100.00;95443.19;10396646;28;2096;-79
2021/06/29 22:32:50;;;;;;;;;;;15.60;99.90;;;14.72;100.00;95430.66;10441255;28;2120;-81
2021/06/29 22:37:54;;;;;;;;;;;15.70;99.90;;;14.72;100.00;95422.53;10428209;28;2308;-80
2021/06/29 22:43:08;;;;;;;;;;;15.70;99.90;;;14.68;100.00;95414.22;10439004;28;2430;-83
2021/06/29 22:48:11;;;;;;;;;;;15.70;99.90;;;14.67;100.00;95406.44;10416734;28;2233;-79
2021/06/29 22:53:14;;;;;;;;;;;15.70;99.90;;;14.72;100.00;95406.31;10430554;28;2218;-82
2021/06/29 22:58:28;;;;;;;;;;;15.70;99.90;;;14.78;100.00;95421.31;10429481;28;2185;-79
2021/06/29 23:03:35;;;;;;;;;;;15.70;99.90;;;14.78;100.00;95407.78;10456756;28;2169;-81
2021/06/29 23:08:38;;;;;;;;;;;15.80;99.90;;;14.89;100.00;95409.13;10420700;28;2130;-80
2021/06/29 23:13:53;;;;;;;;;;;15.80;99.90;;;14.82;100.00;95411.44;10402518;28;2232;-78
2021/06/29 23:18:59;;;;;;;;;;;15.80;99.90;;;14.85;100.00;95398.09;10399630;28;2202;-81
2021/06/29 23:24:02;;;;;;;;;;;15.90;99.90;;;14.85;100.00;95394.59;10435985;28;2081;-81
2021/06/29 23:29:19;;;;;;;;;;;15.90;99.90;;;14.85;100.00;95389.19;10403931;28;2151;-79
2021/06/29 23:34:24;;;;;;;;;;;15.80;99.90;;;14.76;100.00;95391.03;10432618;28;2126;-82
2021/06/29 23:39:42;;;;;;;;;;;15.80;99.90;;;14.74;100.00;95401.38;10428891;28;2082;-80
2021/06/29 23:45:12;;;;;;;;;;;15.80;99.90;;;14.74;100.00;95393.25;10434521;28;1914;-79
2021/06/29 23:55:48;;;;;;;;;;;15.70;99.90;;;14.62;100.00;95407.34;10429466;28;2137;-79
